• Join FlightAware (Why Join?)
  • Login
  • US Flag GB Flag 
15:07 EST


 

Airport Tracker/Info


-or-


 

Live Flight TrackerFlight Track Log ✈ EJA929 ✈ 11-Apr-2013 ✈ KFAT - KSMO

Flight Track Log - Related Links

Times and Time Zones

All times are in EDT time to prevent confusion due to time zone crossing. See the EJA929 flight status page for this flight to view local times or setup timezone preferences in your user account.

Time Position Orientation Groundspeed Altitude Reporting Facility
EDT Latitude Longitude Course Direction KTS MPH feet Rate Location/Type
20:51 36.7944 -119.7528 309° West 182 209 2,300  Level Oakland Center
20:52 36.8344 -119.8156 309° West 232 267 7,400 3,660 Climbing Oakland Center
20:53 36.8303 -119.7419 94° East 304 350 9,900 3,540 Climbing Oakland Center
20:54 36.7333 -119.7064 164° South 352 405 14,600 4,020 Climbing Oakland Center
20:55 36.6353 -119.6556 157° South 377 434 18,200 2,100 Climbing Oakland Center
20:56 36.5275 -119.6036 159° South 414 476 19,000 360 Climbing Oakland Center
20:57 36.4067 -119.5458 159° South 459 528 19,000 -60 Level Oakland Center
20:58 36.2853 -119.4869 159° South 465 535 18,900  Descending Oakland Center
20:59 36.1675 -119.4314 159° South 454 522 19,000  Climbing Oakland Center
21:00 36.0478 -119.3742 159° South 459 528 19,000  Level Oakland Center
21:01 35.9053 -119.3092 160° South 456 525 19,000  Level Oakland Center
21:02 35.7764 -119.3017 177° South 464 534 19,000  Level Oakland Center
21:03 35.6472 -119.3067 182° South 465 535 19,000  Level Oakland Center
21:03 35.5950 -119.3086 182° South 465 535 19,000  Level Los Angeles Center
21:04 35.4664 -119.3144 182° South 462 532 19,000  Level Los Angeles Center
21:06 35.3386 -119.3197 182° South 458 527 19,000  Level Los Angeles Center
21:07 35.1836 -119.3250 182° South 460 529 19,000  Level Los Angeles Center
21:08 35.0631 -119.2750 161° South 461 531 19,000  Level Los Angeles Center
21:09 34.9494 -119.2106 155° Southeast 454 522 19,000 -720 Level Los Angeles Center
21:10 34.8547 -119.1581 156° South 387 445 17,600 -1,980 Descending Los Angeles Center
21:11 34.7517 -119.1011 156° South 359 413 15,000 -2,520 Descending Los Angeles Center
21:12 34.6664 -119.0539 156° South 342 394 12,400 -1,980 Descending Los Angeles Center
21:13 34.5831 -119.0083 156° South 324 373 11,000 -720 Descending Los Angeles Center
21:14 34.5097 -118.9661 155° Southeast 295 339 11,000 -120 Level Los Angeles Center
21:15 34.4358 -118.9269 156° South 289 333 10,800 -1,200 Descending Los Angeles Center
21:16 34.3647 -118.8803 152° Southeast 291 335 8,500 -1,860 Descending Los Angeles Center
21:17 34.3228 -118.7806 117° Southeast 276 318 7,000 -780 Descending Los Angeles Center
21:18 34.2942 -118.6944 112° Southeast 275 316 7,000  Level Los Angeles Center
21:19 34.2667 -118.6167 113° Southeast 275 316 7,100 -180 Climbing Southern California TRACON
21:20 34.2333 -118.5333 116° Southeast 269 310 6,700 -600 Descending Southern California TRACON
21:21 34.2167 -118.4500 104° East 272 313 6,000 -840 Descending Southern California TRACON
21:22 34.1833 -118.3667 116° Southeast 271 312 5,100 -180 Descending Southern California TRACON
21:23 34.1333 -118.3333 151° Southeast 220 253 5,700 -540 Climbing Southern California TRACON
21:24 34.0833 -118.3667 209° Southwest 187 215 4,000 -2,040 Descending Southern California TRACON
21:25 34.0667 -118.4000 239° Southwest 181 208 1,800 -2,100 Descending Southern California TRACON
21:25 34.0522 -118.4100 210° Southwest 182 209 1,500 -1,080 Descending Los Angeles Center
21:26 34.0244 -118.4408 223° Southwest 158 182 400 -540 Descending Los Angeles Center
21:27 34.0014 -118.4681 224° Southwest 150 173 400  Level Los Angeles Center
21:29 34.0000 -118.4500 90° East  Level FlightAware Approximate